Graham, North Carolina
Current Conditions -  °F | °C
As of 8:54 PM on Thursday 20 Nov 2014 (Local Time) from KBUY Reporting Station
Clear Clear  
Wind Chill: 38°   Ceiling: Unl
Heat Index: 42°   Visibility: 10mi
Dew Point: 27°   Wind: 6mph
Humidity: 55%   Direction: 240°WSW
Pressure: 30.09"   Gusts: NA
Location:  36.07°N, 79.4°W
Report Text: KBUY 210154Z AUTO 24005KT 10SM CLR 06/M03 A3009 RMK AO2 SLP193 T00561028
Loading
Personal Weather Stations






























Interactive Weather Map New forecast layout! Learn more

10-Day Weather Forecast

Advertisements
Track Severe Weather on mobile